sensor_id;sensor_type;location;lat;lon;timestamp;temperature;humidity
15705;DHT22;7952;48.396;12.806;2024-03-08T00:01:48;4.30;56.80
15705;DHT22;7952;48.396;12.806;2024-03-08T00:04:13;4.30;56.80
15705;DHT22;7952;48.396;12.806;2024-03-08T00:06:41;4.30;56.80
15705;DHT22;7952;48.396;12.806;2024-03-08T00:09:06;4.30;56.90
15705;DHT22;7952;48.396;12.806;2024-03-08T00:11:33;4.30;56.90
15705;DHT22;7952;48.396;12.806;2024-03-08T00:14:00;4.30;56.90
15705;DHT22;7952;48.396;12.806;2024-03-08T00:16:25;4.30;56.80
15705;DHT22;7952;48.396;12.806;2024-03-08T00:18:51;4.30;56.80
15705;DHT22;7952;48.396;12.806;2024-03-08T00:21:16;4.30;56.80
15705;DHT22;7952;48.396;12.806;2024-03-08T00:23:42;4.30;56.80
15705;DHT22;7952;48.396;12.806;2024-03-08T00:26:07;4.30;56.80
15705;DHT22;7952;48.396;12.806;2024-03-08T00:28:33;4.30;56.90
15705;DHT22;7952;48.396;12.806;2024-03-08T00:31:00;4.30;56.90
15705;DHT22;7952;48.396;12.806;2024-03-08T00:33:25;4.30;56.90
15705;DHT22;7952;48.396;12.806;2024-03-08T00:35:53;4.30;56.90
15705;DHT22;7952;48.396;12.806;2024-03-08T00:38:18;4.30;56.90
15705;DHT22;7952;48.396;12.806;2024-03-08T00:40:44;4.30;56.90
15705;DHT22;7952;48.396;12.806;2024-03-08T00:43:10;4.20;56.80
15705;DHT22;7952;48.396;12.806;2024-03-08T00:45:36;4.20;56.80
15705;DHT22;7952;48.396;12.806;2024-03-08T00:48:03;4.20;56.80
15705;DHT22;7952;48.396;12.806;2024-03-08T00:50:29;4.20;56.80
15705;DHT22;7952;48.396;12.806;2024-03-08T00:52:54;4.20;56.80
15705;DHT22;7952;48.396;12.806;2024-03-08T00:55:20;4.20;56.90
15705;DHT22;7952;48.396;12.806;2024-03-08T00:57:45;4.20;56.90
15705;DHT22;7952;48.396;12.806;2024-03-08T01:00:12;4.20;57.00
15705;DHT22;7952;48.396;12.806;2024-03-08T01:02:40;4.20;57.00
15705;DHT22;7952;48.396;12.806;2024-03-08T01:05:06;4.20;57.00
15705;DHT22;7952;48.396;12.806;2024-03-08T01:07:33;4.20;57.10
15705;DHT22;7952;48.396;12.806;2024-03-08T01:10:01;4.20;57.10
15705;DHT22;7952;48.396;12.806;2024-03-08T01:12:26;4.20;57.10
15705;DHT22;7952;48.396;12.806;2024-03-08T01:14:52;4.20;57.20
15705;DHT22;7952;48.396;12.806;2024-03-08T01:17:17;4.20;57.30
15705;DHT22;7952;48.396;12.806;2024-03-08T01:19:43;4.20;57.30
15705;DHT22;7952;48.396;12.806;2024-03-08T01:22:10;4.20;57.30
15705;DHT22;7952;48.396;12.806;2024-03-08T01:24:36;4.20;57.40
15705;DHT22;7952;48.396;12.806;2024-03-08T01:27:02;4.20;57.40
15705;DHT22;7952;48.396;12.806;2024-03-08T01:29:28;4.20;57.40
15705;DHT22;7952;48.396;12.806;2024-03-08T01:31:55;4.20;57.40
15705;DHT22;7952;48.396;12.806;2024-03-08T01:34:22;4.20;57.50
15705;DHT22;7952;48.396;12.806;2024-03-08T01:36:48;4.20;57.50
15705;DHT22;7952;48.396;12.806;2024-03-08T01:39:14;4.20;57.50
15705;DHT22;7952;48.396;12.806;2024-03-08T01:41:40;4.10;57.30
15705;DHT22;7952;48.396;12.806;2024-03-08T01:44:06;4.20;57.50
15705;DHT22;7952;48.396;12.806;2024-03-08T01:46:33;4.20;57.50
15705;DHT22;7952;48.396;12.806;2024-03-08T01:49:00;4.20;57.60
15705;DHT22;7952;48.396;12.806;2024-03-08T01:51:29;4.20;57.70
15705;DHT22;7952;48.396;12.806;2024-03-08T01:53:57;4.20;57.70
15705;DHT22;7952;48.396;12.806;2024-03-08T01:56:25;4.20;57.70
15705;DHT22;7952;48.396;12.806;2024-03-08T01:58:51;4.30;57.70
15705;DHT22;7952;48.396;12.806;2024-03-08T02:01:18;4.30;57.70
15705;DHT22;7952;48.396;12.806;2024-03-08T02:03:44;4.30;57.70
15705;DHT22;7952;48.396;12.806;2024-03-08T02:06:13;4.30;57.70
15705;DHT22;7952;48.396;12.806;2024-03-08T02:08:42;4.30;57.80
15705;DHT22;7952;48.396;12.806;2024-03-08T02:11:09;4.40;57.90
15705;DHT22;7952;48.396;12.806;2024-03-08T02:13:35;4.40;58.00
15705;DHT22;7952;48.396;12.806;2024-03-08T02:16:01;4.40;58.20
15705;DHT22;7952;48.396;12.806;2024-03-08T02:18:28;4.50;58.20
15705;DHT22;7952;48.396;12.806;2024-03-08T02:20:55;4.50;58.20
15705;DHT22;7952;48.396;12.806;2024-03-08T02:23:22;4.50;58.20
15705;DHT22;7952;48.396;12.806;2024-03-08T02:25:48;4.60;58.30
15705;DHT22;7952;48.396;12.806;2024-03-08T02:28:14;4.60;58.30
15705;DHT22;7952;48.396;12.806;2024-03-08T02:30:40;4.60;58.30
15705;DHT22;7952;48.396;12.806;2024-03-08T02:33:06;4.70;58.40
15705;DHT22;7952;48.396;12.806;2024-03-08T02:35:33;4.70;58.40
15705;DHT22;7952;48.396;12.806;2024-03-08T02:37:59;4.70;58.50
15705;DHT22;7952;48.396;12.806;2024-03-08T02:40:25;4.70;58.50
15705;DHT22;7952;48.396;12.806;2024-03-08T02:42:51;4.70;58.50
15705;DHT22;7952;48.396;12.806;2024-03-08T02:45:16;4.80;58.50
15705;DHT22;7952;48.396;12.806;2024-03-08T02:47:42;4.80;58.50
15705;DHT22;7952;48.396;12.806;2024-03-08T02:50:08;4.80;58.50
15705;DHT22;7952;48.396;12.806;2024-03-08T02:52:36;4.80;58.60
15705;DHT22;7952;48.396;12.806;2024-03-08T02:55:02;4.80;58.60
15705;DHT22;7952;48.396;12.806;2024-03-08T02:57:28;4.90;58.60
15705;DHT22;7952;48.396;12.806;2024-03-08T02:59:54;4.90;58.60
15705;DHT22;7952;48.396;12.806;2024-03-08T03:02:19;4.90;58.60
15705;DHT22;7952;48.396;12.806;2024-03-08T03:04:45;4.90;58.60
15705;DHT22;7952;48.396;12.806;2024-03-08T03:07:10;4.90;58.60
15705;DHT22;7952;48.396;12.806;2024-03-08T03:09:36;4.90;58.60
15705;DHT22;7952;48.396;12.806;2024-03-08T03:12:02;5.00;58.60
15705;DHT22;7952;48.396;12.806;2024-03-08T03:14:28;5.00;58.60
15705;DHT22;7952;48.396;12.806;2024-03-08T03:16:54;5.00;58.50
15705;DHT22;7952;48.396;12.806;2024-03-08T03:19:20;5.00;58.60
15705;DHT22;7952;48.396;12.806;2024-03-08T03:21:46;5.00;58.60
15705;DHT22;7952;48.396;12.806;2024-03-08T03:24:12;5.00;58.50
15705;DHT22;7952;48.396;12.806;2024-03-08T03:26:42;5.00;58.50
15705;DHT22;7952;48.396;12.806;2024-03-08T03:29:09;5.00;58.50
15705;DHT22;7952;48.396;12.806;2024-03-08T03:31:36;5.10;58.60
15705;DHT22;7952;48.396;12.806;2024-03-08T03:34:02;5.10;58.60
15705;DHT22;7952;48.396;12.806;2024-03-08T03:36:32;5.10;58.60
15705;DHT22;7952;48.396;12.806;2024-03-08T03:38:58;5.10;58.50
15705;DHT22;7952;48.396;12.806;2024-03-08T03:41:38;5.10;58.50
15705;DHT22;7952;48.396;12.806;2024-03-08T03:44:05;5.10;58.50
15705;DHT22;7952;48.396;12.806;2024-03-08T03:46:33;5.00;58.40
15705;DHT22;7952;48.396;12.806;2024-03-08T03:48:59;5.00;58.40
15705;DHT22;7952;48.396;12.806;2024-03-08T03:51:25;5.00;58.40
15705;DHT22;7952;48.396;12.806;2024-03-08T03:53:51;5.00;58.40
15705;DHT22;7952;48.396;12.806;2024-03-08T03:56:18;5.00;58.40
15705;DHT22;7952;48.396;12.806;2024-03-08T03:58:44;5.00;58.30
15705;DHT22;7952;48.396;12.806;2024-03-08T04:01:10;5.00;58.30
15705;DHT22;7952;48.396;12.806;2024-03-08T04:03:35;5.00;58.30
15705;DHT22;7952;48.396;12.806;2024-03-08T04:06:03;4.90;58.20
15705;DHT22;7952;48.396;12.806;2024-03-08T04:08:30;4.90;58.20
15705;DHT22;7952;48.396;12.806;2024-03-08T04:10:55;4.80;58.20
15705;DHT22;7952;48.396;12.806;2024-03-08T04:13:21;4.80;58.20
15705;DHT22;7952;48.396;12.806;2024-03-08T04:15:46;4.80;58.20
15705;DHT22;7952;48.396;12.806;2024-03-08T04:18:15;4.80;58.30
15705;DHT22;7952;48.396;12.806;2024-03-08T04:20:40;4.80;58.30
15705;DHT22;7952;48.396;12.806;2024-03-08T04:23:06;4.70;58.20
15705;DHT22;7952;48.396;12.806;2024-03-08T04:25:32;4.70;58.20
15705;DHT22;7952;48.396;12.806;2024-03-08T04:27:58;4.70;58.30
15705;DHT22;7952;48.396;12.806;2024-03-08T04:30:24;4.80;58.40
15705;DHT22;7952;48.396;12.806;2024-03-08T04:32:49;4.60;58.30
15705;DHT22;7952;48.396;12.806;2024-03-08T04:35:15;4.60;58.30
15705;DHT22;7952;48.396;12.806;2024-03-08T04:37:41;4.60;58.40
15705;DHT22;7952;48.396;12.806;2024-03-08T04:40:07;4.60;58.50
15705;DHT22;7952;48.396;12.806;2024-03-08T04:42:33;4.50;58.30
15705;DHT22;7952;48.396;12.806;2024-03-08T04:44:59;4.50;58.40
15705;DHT22;7952;48.396;12.806;2024-03-08T04:47:25;4.50;58.40
15705;DHT22;7952;48.396;12.806;2024-03-08T04:49:51;4.50;58.40
15705;DHT22;7952;48.396;12.806;2024-03-08T04:52:16;4.50;58.40
15705;DHT22;7952;48.396;12.806;2024-03-08T04:54:43;4.40;58.30
15705;DHT22;7952;48.396;12.806;2024-03-08T04:57:10;4.40;58.40
15705;DHT22;7952;48.396;12.806;2024-03-08T04:59:36;4.40;58.40
15705;DHT22;7952;48.396;12.806;2024-03-08T05:02:01;4.30;58.30
15705;DHT22;7952;48.396;12.806;2024-03-08T05:04:27;4.30;58.40
15705;DHT22;7952;48.396;12.806;2024-03-08T05:06:54;4.30;58.40
15705;DHT22;7952;48.396;12.806;2024-03-08T05:09:20;4.30;58.40
15705;DHT22;7952;48.396;12.806;2024-03-08T05:11:47;4.20;58.40
15705;DHT22;7952;48.396;12.806;2024-03-08T05:14:14;4.20;58.40
15705;DHT22;7952;48.396;12.806;2024-03-08T05:16:43;4.20;58.50
15705;DHT22;7952;48.396;12.806;2024-03-08T05:19:09;4.20;58.50
15705;DHT22;7952;48.396;12.806;2024-03-08T05:21:34;4.10;58.40
15705;DHT22;7952;48.396;12.806;2024-03-08T05:24:00;4.10;58.50
15705;DHT22;7952;48.396;12.806;2024-03-08T05:26:25;4.10;58.50
15705;DHT22;7952;48.396;12.806;2024-03-08T05:28:51;4.10;58.50
15705;DHT22;7952;48.396;12.806;2024-03-08T05:31:23;4.10;58.60
15705;DHT22;7952;48.396;12.806;2024-03-08T05:33:49;4.10;58.60
15705;DHT22;7952;48.396;12.806;2024-03-08T05:36:15;4.10;58.60
15705;DHT22;7952;48.396;12.806;2024-03-08T05:38:43;4.10;58.70
15705;DHT22;7952;48.396;12.806;2024-03-08T05:41:09;4.10;58.70
15705;DHT22;7952;48.396;12.806;2024-03-08T05:43:34;4.10;58.70
15705;DHT22;7952;48.396;12.806;2024-03-08T05:46:00;4.10;59.30
15705;DHT22;7952;48.396;12.806;2024-03-08T05:48:25;4.10;59.30
15705;DHT22;7952;48.396;12.806;2024-03-08T05:50:51;4.10;58.70
15705;DHT22;7952;48.396;12.806;2024-03-08T05:53:16;4.10;58.70
15705;DHT22;7952;48.396;12.806;2024-03-08T05:55:42;4.10;59.30
15705;DHT22;7952;48.396;12.806;2024-03-08T05:58:08;4.10;58.70
15705;DHT22;7952;48.396;12.806;2024-03-08T06:00:34;4.20;58.80
15705;DHT22;7952;48.396;12.806;2024-03-08T06:03:01;4.20;58.70
15705;DHT22;7952;48.396;12.806;2024-03-08T06:05:28;4.20;58.70
15705;DHT22;7952;48.396;12.806;2024-03-08T06:07:53;4.20;58.60
15705;DHT22;7952;48.396;12.806;2024-03-08T06:10:19;4.30;58.70
15705;DHT22;7952;48.396;12.806;2024-03-08T06:12:45;4.30;58.70
15705;DHT22;7952;48.396;12.806;2024-03-08T06:15:11;4.30;58.70
15705;DHT22;7952;48.396;12.806;2024-03-08T06:17:40;4.40;58.70
15705;DHT22;7952;48.396;12.806;2024-03-08T06:20:06;4.40;58.70
15705;DHT22;7952;48.396;12.806;2024-03-08T06:22:39;4.40;58.60
15705;DHT22;7952;48.396;12.806;2024-03-08T06:25:08;4.40;58.60
15705;DHT22;7952;48.396;12.806;2024-03-08T06:27:34;4.40;58.60
15705;DHT22;7952;48.396;12.806;2024-03-08T06:30:00;4.50;58.70
15705;DHT22;7952;48.396;12.806;2024-03-08T06:32:26;4.50;58.70
15705;DHT22;7952;48.396;12.806;2024-03-08T06:34:51;4.60;58.80
15705;DHT22;7952;48.396;12.806;2024-03-08T06:37:17;4.60;58.70
15705;DHT22;7952;48.396;12.806;2024-03-08T06:39:50;4.70;58.70
15705;DHT22;7952;48.396;12.806;2024-03-08T06:42:20;4.70;58.60
15705;DHT22;7952;48.396;12.806;2024-03-08T06:44:46;4.80;58.60
15705;DHT22;7952;48.396;12.806;2024-03-08T06:47:17;4.80;58.50
15705;DHT22;7952;48.396;12.806;2024-03-08T06:49:43;4.80;58.50
15705;DHT22;7952;48.396;12.806;2024-03-08T06:52:10;4.80;58.40
15705;DHT22;7952;48.396;12.806;2024-03-08T06:54:36;4.80;58.30
15705;DHT22;7952;48.396;12.806;2024-03-08T06:57:02;4.90;58.40
15705;DHT22;7952;48.396;12.806;2024-03-08T06:59:29;4.90;58.30
15705;DHT22;7952;48.396;12.806;2024-03-08T07:01:54;4.90;58.30
15705;DHT22;7952;48.396;12.806;2024-03-08T07:04:20;4.90;58.20
15705;DHT22;7952;48.396;12.806;2024-03-08T07:06:47;4.90;58.20
15705;DHT22;7952;48.396;12.806;2024-03-08T07:09:15;4.90;58.20
15705;DHT22;7952;48.396;12.806;2024-03-08T07:11:42;4.90;58.20
15705;DHT22;7952;48.396;12.806;2024-03-08T07:14:08;4.90;58.30
15705;DHT22;7952;48.396;12.806;2024-03-08T07:16:34;5.00;58.50
15705;DHT22;7952;48.396;12.806;2024-03-08T07:19:01;5.10;58.50
15705;DHT22;7952;48.396;12.806;2024-03-08T07:21:27;5.20;58.50
15705;DHT22;7952;48.396;12.806;2024-03-08T07:23:52;5.20;58.40
15705;DHT22;7952;48.396;12.806;2024-03-08T07:26:39;5.30;58.30
15705;DHT22;7952;48.396;12.806;2024-03-08T07:29:04;5.40;58.30
15705;DHT22;7952;48.396;12.806;2024-03-08T07:31:30;5.50;58.40
15705;DHT22;7952;48.396;12.806;2024-03-08T07:34:07;5.70;58.30
15705;DHT22;7952;48.396;12.806;2024-03-08T07:36:34;5.80;58.20
15705;DHT22;7952;48.396;12.806;2024-03-08T07:39:00;6.00;58.30
15705;DHT22;7952;48.396;12.806;2024-03-08T07:41:26;6.30;58.60
15705;DHT22;7952;48.396;12.806;2024-03-08T07:43:51;6.60;58.80
15705;DHT22;7952;48.396;12.806;2024-03-08T07:46:17;6.90;58.80
15705;DHT22;7952;48.396;12.806;2024-03-08T07:48:44;7.20;58.30
15705;DHT22;7952;48.396;12.806;2024-03-08T07:51:10;7.40;57.80
15705;DHT22;7952;48.396;12.806;2024-03-08T07:53:37;7.50;57.20
15705;DHT22;7952;48.396;12.806;2024-03-08T07:56:04;7.60;57.00
15705;DHT22;7952;48.396;12.806;2024-03-08T07:58:30;7.70;56.70
15705;DHT22;7952;48.396;12.806;2024-03-08T08:00:56;7.70;56.40
15705;DHT22;7952;48.396;12.806;2024-03-08T08:03:21;7.70;56.20
15705;DHT22;7952;48.396;12.806;2024-03-08T08:05:47;7.90;56.30
15705;DHT22;7952;48.396;12.806;2024-03-08T08:08:14;8.10;56.50
15705;DHT22;7952;48.396;12.806;2024-03-08T08:10:40;8.30;56.50
15705;DHT22;7952;48.396;12.806;2024-03-08T08:13:06;8.50;56.30
15705;DHT22;7952;48.396;12.806;2024-03-08T08:15:31;8.60;56.00
15705;DHT22;7952;48.396;12.806;2024-03-08T08:17:59;8.80;55.80
15705;DHT22;7952;48.396;12.806;2024-03-08T08:20:25;9.00;56.10
15705;DHT22;7952;48.396;12.806;2024-03-08T08:22:53;9.20;55.80
15705;DHT22;7952;48.396;12.806;2024-03-08T08:25:20;9.40;56.20
15705;DHT22;7952;48.396;12.806;2024-03-08T08:27:46;9.80;56.60
15705;DHT22;7952;48.396;12.806;2024-03-08T08:30:12;10.10;55.60
15705;DHT22;7952;48.396;12.806;2024-03-08T08:33:11;10.50;55.80
15705;DHT22;7952;48.396;12.806;2024-03-08T08:35:45;11.00;55.80
15705;DHT22;7952;48.396;12.806;2024-03-08T08:38:13;11.40;54.70
15705;DHT22;7952;48.396;12.806;2024-03-08T08:40:38;11.70;54.10
15705;DHT22;7952;48.396;12.806;2024-03-08T08:43:04;11.90;54.20
15705;DHT22;7952;48.396;12.806;2024-03-08T08:45:31;12.10;54.00
15705;DHT22;7952;48.396;12.806;2024-03-08T08:47:58;12.20;53.90
15705;DHT22;7952;48.396;12.806;2024-03-08T08:50:29;12.40;53.30
15705;DHT22;7952;48.396;12.806;2024-03-08T08:52:55;12.40;52.50
15705;DHT22;7952;48.396;12.806;2024-03-08T08:55:24;12.40;52.00
15705;DHT22;7952;48.396;12.806;2024-03-08T09:00:49;12.40;51.90
15705;DHT22;7952;48.396;12.806;2024-03-08T09:03:19;12.40;51.30
15705;DHT22;7952;48.396;12.806;2024-03-08T09:05:44;12.40;51.00
15705;DHT22;7952;48.396;12.806;2024-03-08T09:08:10;12.40;50.90
15705;DHT22;7952;48.396;12.806;2024-03-08T09:10:45;12.40;50.90
15705;DHT22;7952;48.396;12.806;2024-03-08T09:14:12;12.30;50.60
15705;DHT22;7952;48.396;12.806;2024-03-08T09:16:38;12.30;50.00
15705;DHT22;7952;48.396;12.806;2024-03-08T09:19:04;12.20;49.90
15705;DHT22;7952;48.396;12.806;2024-03-08T09:21:30;12.20;49.60
15705;DHT22;7952;48.396;12.806;2024-03-08T09:24:00;12.20;49.80
15705;DHT22;7952;48.396;12.806;2024-03-08T09:26:26;12.20;50.00
15705;DHT22;7952;48.396;12.806;2024-03-08T09:28:52;12.30;49.80
15705;DHT22;7952;48.396;12.806;2024-03-08T09:35:07;12.30;49.70
15705;DHT22;7952;48.396;12.806;2024-03-08T09:37:39;12.40;49.20
15705;DHT22;7952;48.396;12.806;2024-03-08T09:40:24;12.30;48.80
15705;DHT22;7952;48.396;12.806;2024-03-08T09:42:52;12.20;48.40
15705;DHT22;7952;48.396;12.806;2024-03-08T09:45:20;12.10;48.20
15705;DHT22;7952;48.396;12.806;2024-03-08T09:47:56;12.10;48.20
15705;DHT22;7952;48.396;12.806;2024-03-08T09:50:21;12.00;48.10
15705;DHT22;7952;48.396;12.806;2024-03-08T09:53:07;11.90;48.10
15705;DHT22;7952;48.396;12.806;2024-03-08T09:55:38;11.90;48.10
15705;DHT22;7952;48.396;12.806;2024-03-08T09:58:12;11.90;48.20
15705;DHT22;7952;48.396;12.806;2024-03-08T10:00:47;11.80;48.30
15705;DHT22;7952;48.396;12.806;2024-03-08T10:03:33;11.90;48.30
15705;DHT22;7952;48.396;12.806;2024-03-08T10:05:59;11.90;48.20
15705;DHT22;7952;48.396;12.806;2024-03-08T10:08:28;11.80;47.70
15705;DHT22;7952;48.396;12.806;2024-03-08T10:10:57;11.70;47.70
15705;DHT22;7952;48.396;12.806;2024-03-08T10:13:25;11.60;47.50
15705;DHT22;7952;48.396;12.806;2024-03-08T10:15:52;11.50;47.60
15705;DHT22;7952;48.396;12.806;2024-03-08T10:18:18;11.40;47.60
15705;DHT22;7952;48.396;12.806;2024-03-08T10:20:43;11.30;47.30
15705;DHT22;7952;48.396;12.806;2024-03-08T10:23:09;11.20;47.50
15705;DHT22;7952;48.396;12.806;2024-03-08T10:25:36;11.10;47.60
15705;DHT22;7952;48.396;12.806;2024-03-08T10:28:11;11.00;47.90
15705;DHT22;7952;48.396;12.806;2024-03-08T10:34:03;10.80;48.00
15705;DHT22;7952;48.396;12.806;2024-03-08T10:36:34;10.70;48.10
15705;DHT22;7952;48.396;12.806;2024-03-08T10:39:24;10.60;48.20
15705;DHT22;7952;48.396;12.806;2024-03-08T10:41:58;10.50;48.20
15705;DHT22;7952;48.396;12.806;2024-03-08T10:47:29;10.40;48.30
15705;DHT22;7952;48.396;12.806;2024-03-08T10:50:17;10.40;48.50
15705;DHT22;7952;48.396;12.806;2024-03-08T10:52:50;10.30;48.40
15705;DHT22;7952;48.396;12.806;2024-03-08T10:55:17;10.30;48.30
15705;DHT22;7952;48.396;12.806;2024-03-08T10:57:44;10.30;48.20
15705;DHT22;7952;48.396;12.806;2024-03-08T11:00:12;10.30;48.20
15705;DHT22;7952;48.396;12.806;2024-03-08T11:02:38;10.30;48.10
15705;DHT22;7952;48.396;12.806;2024-03-08T11:05:04;10.30;48.10
15705;DHT22;7952;48.396;12.806;2024-03-08T11:07:42;10.30;48.00
15705;DHT22;7952;48.396;12.806;2024-03-08T11:10:19;10.30;48.00
15705;DHT22;7952;48.396;12.806;2024-03-08T11:12:45;10.30;47.90
15705;DHT22;7952;48.396;12.806;2024-03-08T11:15:13;10.30;47.90
15705;DHT22;7952;48.396;12.806;2024-03-08T11:17:40;10.30;47.90
15705;DHT22;7952;48.396;12.806;2024-03-08T11:20:14;10.30;47.90
15705;DHT22;7952;48.396;12.806;2024-03-08T11:28:23;10.40;47.80
15705;DHT22;7952;48.396;12.806;2024-03-08T11:33:31;10.50;48.00
15705;DHT22;7952;48.396;12.806;2024-03-08T11:36:10;10.50;47.80
15705;DHT22;7952;48.396;12.806;2024-03-08T11:38:43;10.50;47.80
15705;DHT22;7952;48.396;12.806;2024-03-08T11:41:47;10.60;47.80
15705;DHT22;7952;48.396;12.806;2024-03-08T11:44:14;10.60;47.70
15705;DHT22;7952;48.396;12.806;2024-03-08T11:46:49;10.60;47.80
15705;DHT22;7952;48.396;12.806;2024-03-08T11:49:14;10.70;48.20
15705;DHT22;7952;48.396;12.806;2024-03-08T11:51:40;10.70;48.20
15705;DHT22;7952;48.396;12.806;2024-03-08T11:54:15;10.80;47.90
15705;DHT22;7952;48.396;12.806;2024-03-08T11:57:05;10.80;47.60
15705;DHT22;7952;48.396;12.806;2024-03-08T11:59:31;10.80;47.40
15705;DHT22;7952;48.396;12.806;2024-03-08T12:02:03;10.80;47.60
15705;DHT22;7952;48.396;12.806;2024-03-08T12:04:32;10.70;47.60
15705;DHT22;7952;48.396;12.806;2024-03-08T12:07:02;10.80;48.10
15705;DHT22;7952;48.396;12.806;2024-03-08T12:09:31;10.90;48.10
15705;DHT22;7952;48.396;12.806;2024-03-08T12:11:58;11.00;48.10
15705;DHT22;7952;48.396;12.806;2024-03-08T12:14:24;11.10;48.00
15705;DHT22;7952;48.396;12.806;2024-03-08T12:16:51;11.20;47.70
15705;DHT22;7952;48.396;12.806;2024-03-08T12:19:17;11.20;47.70
15705;DHT22;7952;48.396;12.806;2024-03-08T12:21:43;11.20;47.40
15705;DHT22;7952;48.396;12.806;2024-03-08T12:24:17;11.30;47.30
15705;DHT22;7952;48.396;12.806;2024-03-08T12:26:48;11.30;47.20
15705;DHT22;7952;48.396;12.806;2024-03-08T12:29:23;11.30;47.30
15705;DHT22;7952;48.396;12.806;2024-03-08T12:31:54;11.40;47.50
15705;DHT22;7952;48.396;12.806;2024-03-08T12:34:21;11.40;47.40
15705;DHT22;7952;48.396;12.806;2024-03-08T12:36:48;11.40;47.10
15705;DHT22;7952;48.396;12.806;2024-03-08T12:39:17;11.50;47.20
15705;DHT22;7952;48.396;12.806;2024-03-08T12:41:47;11.50;47.20
15705;DHT22;7952;48.396;12.806;2024-03-08T12:44:31;11.50;47.20
15705;DHT22;7952;48.396;12.806;2024-03-08T12:46:57;11.60;47.20
15705;DHT22;7952;48.396;12.806;2024-03-08T12:49:24;11.60;47.00
15705;DHT22;7952;48.396;12.806;2024-03-08T12:51:50;11.60;47.00
15705;DHT22;7952;48.396;12.806;2024-03-08T12:54:23;11.70;47.10
15705;DHT22;7952;48.396;12.806;2024-03-08T12:56:49;11.70;47.10
15705;DHT22;7952;48.396;12.806;2024-03-08T12:59:18;11.70;46.90
15705;DHT22;7952;48.396;12.806;2024-03-08T13:01:44;11.70;46.70
15705;DHT22;7952;48.396;12.806;2024-03-08T13:04:10;11.70;46.70
15705;DHT22;7952;48.396;12.806;2024-03-08T13:06:36;11.70;46.80
15705;DHT22;7952;48.396;12.806;2024-03-08T13:09:02;11.80;46.80
15705;DHT22;7952;48.396;12.806;2024-03-08T13:11:36;11.80;46.80
15705;DHT22;7952;48.396;12.806;2024-03-08T13:14:03;11.90;46.60
15705;DHT22;7952;48.396;12.806;2024-03-08T13:16:31;11.90;46.60
15705;DHT22;7952;48.396;12.806;2024-03-08T13:18:57;11.90;46.50
15705;DHT22;7952;48.396;12.806;2024-03-08T13:21:22;11.90;46.50
15705;DHT22;7952;48.396;12.806;2024-03-08T13:23:51;11.90;46.60
15705;DHT22;7952;48.396;12.806;2024-03-08T13:26:18;11.90;46.60
15705;DHT22;7952;48.396;12.806;2024-03-08T13:28:48;12.00;46.40
15705;DHT22;7952;48.396;12.806;2024-03-08T13:31:20;12.00;46.50
15705;DHT22;7952;48.396;12.806;2024-03-08T13:33:45;12.10;46.60
15705;DHT22;7952;48.396;12.806;2024-03-08T13:36:13;12.10;46.50
15705;DHT22;7952;48.396;12.806;2024-03-08T13:38:46;12.10;46.40
15705;DHT22;7952;48.396;12.806;2024-03-08T13:41:13;12.10;46.30
15705;DHT22;7952;48.396;12.806;2024-03-08T13:43:43;12.10;46.80
15705;DHT22;7952;48.396;12.806;2024-03-08T13:46:10;12.10;46.30
15705;DHT22;7952;48.396;12.806;2024-03-08T13:48:36;12.20;46.20
15705;DHT22;7952;48.396;12.806;2024-03-08T13:54:15;12.20;45.90
15705;DHT22;7952;48.396;12.806;2024-03-08T13:56:42;12.20;46.10
15705;DHT22;7952;48.396;12.806;2024-03-08T13:59:09;12.30;46.00
15705;DHT22;7952;48.396;12.806;2024-03-08T14:02:21;12.20;45.90
15705;DHT22;7952;48.396;12.806;2024-03-08T14:04:46;12.20;45.80
15705;DHT22;7952;48.396;12.806;2024-03-08T14:07:15;12.30;45.90
15705;DHT22;7952;48.396;12.806;2024-03-08T14:13:38;12.20;45.90
15705;DHT22;7952;48.396;12.806;2024-03-08T14:16:06;12.20;45.60
15705;DHT22;7952;48.396;12.806;2024-03-08T14:19:00;12.20;45.50
15705;DHT22;7952;48.396;12.806;2024-03-08T14:21:34;12.20;45.70
15705;DHT22;7952;48.396;12.806;2024-03-08T14:24:22;12.20;45.80
15705;DHT22;7952;48.396;12.806;2024-03-08T14:26:49;12.10;45.70
15705;DHT22;7952;48.396;12.806;2024-03-08T14:29:33;12.10;45.60
15705;DHT22;7952;48.396;12.806;2024-03-08T14:32:05;12.10;45.70
15705;DHT22;7952;48.396;12.806;2024-03-08T14:34:35;12.10;45.70
15705;DHT22;7952;48.396;12.806;2024-03-08T14:37:02;12.10;45.70
15705;DHT22;7952;48.396;12.806;2024-03-08T14:39:31;12.10;45.80
15705;DHT22;7952;48.396;12.806;2024-03-08T14:41:59;12.10;45.70
15705;DHT22;7952;48.396;12.806;2024-03-08T14:44:25;12.10;45.70
15705;DHT22;7952;48.396;12.806;2024-03-08T14:46:55;12.10;45.80
15705;DHT22;7952;48.396;12.806;2024-03-08T14:49:42;12.10;46.00
15705;DHT22;7952;48.396;12.806;2024-03-08T14:52:14;12.10;45.80
15705;DHT22;7952;48.396;12.806;2024-03-08T14:55:03;12.10;45.80
15705;DHT22;7952;48.396;12.806;2024-03-08T14:57:29;12.10;45.60
15705;DHT22;7952;48.396;12.806;2024-03-08T14:59:58;12.10;45.50
15705;DHT22;7952;48.396;12.806;2024-03-08T15:02:31;12.00;45.40
15705;DHT22;7952;48.396;12.806;2024-03-08T15:07:53;12.00;45.40
15705;DHT22;7952;48.396;12.806;2024-03-08T15:10:20;12.00;45.20
15705;DHT22;7952;48.396;12.806;2024-03-08T15:12:48;11.90;45.20
15705;DHT22;7952;48.396;12.806;2024-03-08T15:15:14;11.90;45.30
15705;DHT22;7952;48.396;12.806;2024-03-08T15:17:45;11.90;45.40
15705;DHT22;7952;48.396;12.806;2024-03-08T15:20:15;11.90;45.40
15705;DHT22;7952;48.396;12.806;2024-03-08T15:22:54;11.80;45.50
15705;DHT22;7952;48.396;12.806;2024-03-08T15:25:24;11.80;45.50
15705;DHT22;7952;48.396;12.806;2024-03-08T15:27:53;11.80;45.70
15705;DHT22;7952;48.396;12.806;2024-03-08T15:30:19;11.70;45.70
15705;DHT22;7952;48.396;12.806;2024-03-08T15:32:48;11.80;45.80
15705;DHT22;7952;48.396;12.806;2024-03-08T15:35:16;11.80;45.70
15705;DHT22;7952;48.396;12.806;2024-03-08T15:37:43;11.70;45.70
15705;DHT22;7952;48.396;12.806;2024-03-08T15:40:14;11.70;45.70
15705;DHT22;7952;48.396;12.806;2024-03-08T15:42:58;11.70;45.70
15705;DHT22;7952;48.396;12.806;2024-03-08T15:45:25;11.60;45.60
15705;DHT22;7952;48.396;12.806;2024-03-08T15:47:54;11.60;45.70
15705;DHT22;7952;48.396;12.806;2024-03-08T15:50:20;11.60;45.60
15705;DHT22;7952;48.396;12.806;2024-03-08T15:52:49;11.50;45.50
15705;DHT22;7952;48.396;12.806;2024-03-08T15:55:19;11.50;45.50
15705;DHT22;7952;48.396;12.806;2024-03-08T15:57:52;11.50;45.40
15705;DHT22;7952;48.396;12.806;2024-03-08T16:00:22;11.50;45.50
15705;DHT22;7952;48.396;12.806;2024-03-08T16:03:11;11.40;45.40
15705;DHT22;7952;48.396;12.806;2024-03-08T16:05:46;11.40;45.50
15705;DHT22;7952;48.396;12.806;2024-03-08T16:08:15;11.30;45.50
15705;DHT22;7952;48.396;12.806;2024-03-08T16:10:46;11.30;45.60
15705;DHT22;7952;48.396;12.806;2024-03-08T16:13:18;11.30;45.60
15705;DHT22;7952;48.396;12.806;2024-03-08T16:15:46;11.20;45.60
15705;DHT22;7952;48.396;12.806;2024-03-08T16:18:13;11.20;45.80
15705;DHT22;7952;48.396;12.806;2024-03-08T16:20:39;11.10;45.80